createdAt,value
2023-08-15T00:04:02.685Z,50973.84
2023-08-15T00:09:06.655Z,50945.84
2023-08-15T00:14:11.096Z,50987.84
2023-08-15T00:19:16.597Z,50949.84
2023-08-15T00:24:20.522Z,50955.84
2023-08-15T00:29:24.269Z,50969.84
2023-08-15T00:34:29.340Z,50951.84
2023-08-15T00:39:32.994Z,50959.84
2023-08-15T00:44:42.171Z,50941.88
2023-08-15T00:49:49.008Z,50929.88
2023-08-15T00:54:53.710Z,50935.88
2023-08-15T00:59:57.634Z,50907.88
2023-08-15T01:05:02.746Z,50929.88
2023-08-15T01:10:07.817Z,50949.84
2023-08-15T01:15:17.950Z,50945.84
2023-08-15T01:20:28.400Z,50917.88
2023-08-15T01:25:35.561Z,50913.88
2023-08-15T01:30:39.656Z,50915.88
2023-08-15T01:35:47.972Z,50907.88
2023-08-15T01:40:57.836Z,50965.84
2023-08-15T01:46:02.547Z,50941.88
2023-08-15T01:51:06.299Z,50943.84
2023-08-15T01:56:11.441Z,50941.88
2023-08-15T02:01:15.538Z,50955.84
2023-08-15T02:06:19.181Z,50977.84
2023-08-15T02:11:24.439Z,50947.84
2023-08-15T02:16:28.064Z,50917.88
2023-08-15T02:21:31.821Z,50939.88
2023-08-15T02:26:37.253Z,50941.88
2023-08-15T02:31:45.817Z,50937.88
2023-08-15T02:36:49.835Z,50889.88
2023-08-15T02:41:54.937Z,50939.88
2023-08-15T02:46:58.701Z,50899.88
2023-08-15T02:52:02.396Z,50937.88
2023-08-15T02:57:07.596Z,50945.84
2023-08-15T03:08:03.071Z,50829.91
2023-08-15T03:13:08.142Z,50883.88
2023-08-15T03:18:11.793Z,50893.88
2023-08-15T03:23:15.501Z,50881.88
2023-08-15T03:28:20.505Z,50823.91
2023-08-15T03:33:25.598Z,50875.88
2023-08-15T03:38:29.560Z,50923.88
2023-08-15T03:43:37.080Z,50859.88
2023-08-15T03:48:42.387Z,50899.88
2023-08-15T03:53:46.089Z,50887.88
2023-08-15T03:58:51.344Z,50859.88
2023-08-15T04:03:55.055Z,50861.88
2023-08-15T04:08:58.790Z,50875.88
2023-08-15T04:14:03.840Z,50881.88
2023-08-15T04:19:07.540Z,50887.88
2023-08-15T04:24:12.245Z,50895.88
2023-08-15T04:29:17.463Z,50887.88
2023-08-15T04:34:21.217Z,50921.88
2023-08-15T04:39:28.263Z,50873.88
2023-08-15T04:44:33.330Z,50953.84
2023-08-15T04:49:37.038Z,50969.84
2023-08-15T04:54:40.786Z,50941.88
2023-08-15T04:59:47.286Z,51007.84
2023-08-15T05:04:51.059Z,51077.81
2023-08-15T05:09:54.763Z,51077.81
2023-08-15T05:15:00.094Z,51121.81
2023-08-15T05:20:04.749Z,51157.81
2023-08-15T05:25:09.884Z,51209.78
2023-08-15T05:30:21.492Z,51269.78
2023-08-15T05:35:25.169Z,51297.78
2023-08-15T05:40:29.246Z,51273.78
2023-08-15T05:45:34.515Z,51299.78
2023-08-15T05:50:38.202Z,51323.78
2023-08-15T05:55:43.731Z,51361.75
2023-08-15T06:00:49.296Z,51409.75
2023-08-15T06:05:53.064Z,51457.75
2023-08-15T06:10:56.667Z,52339.72
2023-08-15T06:16:01.716Z,53021.81
2023-08-15T06:21:05.480Z,53447.94
2023-08-15T06:26:09.182Z,53848.09
2023-08-15T06:31:14.270Z,53740.06
2023-08-15T06:36:17.950Z,54290.31
2023-08-15T06:41:21.729Z,54346.38
2023-08-15T06:46:28.723Z,54778.63
2023-08-15T06:51:32.486Z,55349.06
2023-08-15T06:56:36.066Z,55775.44
2023-08-15T07:01:41.043Z,56103.75
2023-08-15T07:06:44.713Z,55585.28
2023-08-15T07:11:48.445Z,55579.25
2023-08-15T07:16:53.556Z,56197.88
2023-08-15T07:21:57.265Z,56654.38
2023-08-15T07:27:01.005Z,56179.84
2023-08-15T07:32:07.653Z,55631.31
2023-08-15T07:37:12.420Z,55595.28
2023-08-15T07:42:16.109Z,56472.16
2023-08-15T07:47:21.640Z,58094.28
2023-08-15T07:52:25.725Z,57517.47
2023-08-15T07:57:29.535Z,57090.88
2023-08-15T08:02:34.764Z,57797.84
2023-08-15T08:07:39.851Z,59572.81
2023-08-15T08:12:43.679Z,59240.19
2023-08-15T08:17:48.841Z,59384.47
2023-08-15T08:22:52.511Z,59372.44
2023-08-15T08:27:56.476Z,60703.13
2023-08-15T08:33:01.737Z,57645.63
2023-08-15T08:38:06.088Z,57835.91
2023-08-15T08:43:11.088Z,56137.81
2023-08-15T08:48:18.688Z,56556.25
2023-08-15T08:53:22.609Z,57301.16
2023-08-15T08:58:28.236Z,56792.53
2023-08-15T09:03:34.039Z,55106.88
2023-08-15T09:08:37.746Z,55156.91
2023-08-15T09:13:48.565Z,54854.69
2023-08-15T09:18:53.651Z,54598.50
2023-08-15T09:24:00.528Z,54252.31
2023-08-15T09:29:04.642Z,54294.34
2023-08-15T09:34:12.432Z,54434.41
2023-08-15T09:39:16.489Z,54320.34
2023-08-15T09:44:31.738Z,54638.53
2023-08-15T09:49:37.169Z,54556.50
2023-08-15T09:54:42.697Z,54728.59
2023-08-15T09:59:46.430Z,54690.56
2023-08-15T10:04:59.196Z,54246.31
2023-08-15T10:10:05.332Z,54486.44
2023-08-15T10:15:12.052Z,54746.63
2023-08-15T10:20:20.554Z,54666.56
2023-08-15T10:25:38.461Z,54630.53
2023-08-15T10:30:51.593Z,54630.53
2023-08-15T10:36:10.457Z,54502.44
2023-08-15T10:41:16.151Z,54634.53
2023-08-15T10:46:21.277Z,55435.13
2023-08-15T10:51:27.814Z,55907.56
2023-08-15T10:56:33.171Z,55259.00
2023-08-15T11:01:38.774Z,55521.22
2023-08-15T11:06:46.931Z,55351.06
2023-08-15T11:11:50.798Z,55078.84
2023-08-15T11:16:54.550Z,55112.88
2023-08-15T11:22:00.058Z,54924.75
2023-08-15T11:27:03.930Z,54648.53
2023-08-15T11:32:10.153Z,55319.03
2023-08-15T11:37:16.009Z,55463.16
2023-08-15T11:42:20.351Z,55319.03
2023-08-15T11:47:24.420Z,55479.19
2023-08-15T11:52:30.536Z,55971.63
2023-08-15T11:57:37.408Z,54808.66
2023-08-15T12:02:44.999Z,55044.81
2023-08-15T12:07:51.321Z,54818.66
2023-08-15T12:12:54.982Z,54822.66
2023-08-15T12:17:58.768Z,54938.75
2023-08-15T12:23:07.423Z,54966.75
2023-08-15T12:28:11.120Z,55128.88
2023-08-15T12:33:20.872Z,55196.94
2023-08-15T12:38:36.471Z,55479.19
2023-08-15T12:43:40.265Z,55351.06
2023-08-15T12:48:44.007Z,56205.88
2023-08-15T12:53:49.097Z,56388.06
2023-08-15T12:58:52.889Z,55341.06
2023-08-15T13:03:56.844Z,55535.22
2023-08-15T13:09:01.984Z,56147.81
2023-08-15T13:14:06.364Z,56594.28
2023-08-15T13:19:10.245Z,56874.63
2023-08-15T13:24:15.339Z,56526.22
2023-08-15T13:29:19.358Z,57297.16
2023-08-15T13:34:23.971Z,58086.28
2023-08-15T13:39:29.292Z,58935.66
2023-08-15T13:44:33.031Z,60286.22
2023-08-15T13:49:36.673Z,58857.53
2023-08-15T13:54:41.718Z,60013.66
2023-08-15T13:59:46.213Z,60276.22
2023-08-15T14:04:50.002Z,60787.31
2023-08-15T14:09:56.693Z,61555.06
2023-08-15T14:15:00.664Z,61224.28
2023-08-15T14:20:05.017Z,60294.25
2023-08-15T14:25:11.120Z,59504.69
2023-08-15T14:30:15.446Z,58841.50
2023-08-15T14:35:20.375Z,59226.19
2023-08-15T14:40:25.460Z,58637.16
2023-08-15T14:45:29.324Z,58318.63
2023-08-15T14:50:32.975Z,57890.00
2023-08-15T14:55:38.136Z,58192.44
2023-08-15T15:00:41.913Z,57583.53
2023-08-15T15:05:46.046Z,58957.69
2023-08-15T15:10:54.323Z,59053.88
2023-08-15T15:15:57.894Z,58779.41
2023-08-15T15:21:02.365Z,57475.41
2023-08-15T15:26:07.715Z,56858.59
2023-08-15T15:31:11.650Z,56037.69
2023-08-15T15:36:16.025Z,56336.00
2023-08-15T15:41:21.131Z,55208.94
2023-08-15T15:46:25.114Z,54716.59
2023-08-15T15:51:29.129Z,54218.28
2023-08-15T15:56:34.250Z,54206.28
2023-08-15T16:01:38.286Z,54046.19
2023-08-15T16:06:42.393Z,53684.03
2023-08-15T16:11:47.755Z,53694.03
2023-08-15T16:16:51.463Z,53714.03
2023-08-15T16:21:55.143Z,53716.03
2023-08-15T16:27:00.188Z,53720.06
2023-08-15T16:32:04.217Z,53640.03
2023-08-15T16:37:07.909Z,53756.06
2023-08-15T16:42:12.964Z,53608.00
2023-08-15T16:47:16.686Z,53578.00
2023-08-15T16:52:20.627Z,53588.00
2023-08-15T16:57:26.026Z,53594.00
2023-08-15T17:02:29.909Z,53489.97
2023-08-15T17:07:34.773Z,53477.97
2023-08-15T17:12:40.458Z,53325.91
2023-08-15T17:17:44.303Z,53325.91
2023-08-15T17:22:47.976Z,53293.91
2023-08-15T17:27:53.596Z,53181.88
2023-08-15T17:32:57.261Z,53161.84
2023-08-15T17:38:00.994Z,53131.84
2023-08-15T17:43:06.528Z,53063.81
2023-08-15T17:48:11.811Z,53013.81
2023-08-15T17:53:15.650Z,52909.78
2023-08-15T17:58:20.722Z,52831.78
2023-08-15T18:03:24.550Z,52785.78
2023-08-15T18:08:28.439Z,52697.75
2023-08-15T18:13:33.427Z,52601.75
2023-08-15T18:18:37.201Z,52611.75
2023-08-15T18:23:40.830Z,52547.72
2023-08-15T18:28:46.147Z,52531.72
2023-08-15T18:33:49.839Z,52463.72
2023-08-15T18:38:53.552Z,52433.72
2023-08-15T18:43:58.542Z,52365.72
2023-08-15T18:49:02.171Z,52299.72
2023-08-15T18:54:06.087Z,52253.72
2023-08-15T18:59:11.142Z,52225.72
2023-08-15T19:04:14.801Z,52173.69
2023-08-15T19:09:18.453Z,52145.69
2023-08-15T19:14:23.730Z,52129.69
2023-08-15T19:19:27.494Z,52113.69
2023-08-15T19:24:31.220Z,52065.69
2023-08-15T19:29:36.503Z,52025.69
2023-08-15T19:34:46.793Z,52017.69
2023-08-15T19:39:50.566Z,51997.69
2023-08-15T19:44:55.535Z,51969.69
2023-08-15T19:49:59.217Z,51983.69
2023-08-15T19:55:04.302Z,51985.69
2023-08-15T20:00:11.780Z,51937.69
2023-08-15T20:05:15.695Z,51883.72
2023-08-15T20:10:19.602Z,51859.72
2023-08-15T20:15:24.729Z,51845.72
2023-08-15T20:20:28.419Z,51825.72
2023-08-15T20:25:32.105Z,51781.72
2023-08-15T20:30:37.430Z,51771.72
2023-08-15T20:35:41.158Z,51729.72
2023-08-15T20:40:46.918Z,51749.72
2023-08-15T20:45:53.970Z,51711.72
2023-08-15T20:50:57.647Z,51691.72
2023-08-15T20:56:01.240Z,51643.72
2023-08-15T21:01:06.364Z,51631.72
2023-08-15T21:06:10.171Z,51637.72
2023-08-15T21:11:13.814Z,51667.72
2023-08-15T21:16:19.160Z,51681.72
2023-08-15T21:21:22.938Z,51679.72
2023-08-15T21:26:27.767Z,51705.72
2023-08-15T21:31:33.462Z,51649.72
2023-08-15T21:36:37.227Z,51635.72
2023-08-15T21:41:40.859Z,51647.72
2023-08-15T21:46:46.074Z,51601.72
2023-08-15T21:51:49.806Z,51591.72
2023-08-15T21:56:53.529Z,51623.72
2023-08-15T22:01:58.739Z,51601.72
2023-08-15T22:07:02.677Z,51547.75
2023-08-15T22:12:06.950Z,51571.72
2023-08-15T22:17:12.050Z,51571.72
2023-08-15T22:22:15.691Z,51519.75
2023-08-15T22:27:19.374Z,51547.75
2023-08-15T22:32:24.510Z,51509.75
2023-08-15T22:37:29.431Z,51489.75
2023-08-15T22:42:33.375Z,51471.75
2023-08-15T22:47:38.754Z,51489.75
2023-08-15T22:52:42.597Z,51477.75
2023-08-15T22:57:46.317Z,51477.75
2023-08-15T23:02:51.312Z,51461.75
2023-08-15T23:07:55.136Z,51431.75
2023-08-15T23:12:58.795Z,51411.75
2023-08-15T23:18:03.944Z,51421.75
2023-08-15T23:23:08.403Z,51433.75
2023-08-15T23:28:12.190Z,51355.75
2023-08-15T23:33:17.284Z,51373.75
2023-08-15T23:38:21.822Z,51381.75
2023-08-15T23:43:25.516Z,51333.78
2023-08-15T23:48:30.639Z,51373.75
2023-08-15T23:53:34.313Z,51317.78
2023-08-15T23:58:37.976Z,51361.75
